Time;durP1;ratioP1;P1;durP2;ratioP2;P2;SDS_P1;SDS_P2;PMS_P1;PMS_P2;Temp;Humidity;BMP_temperature;BMP_pressure;BME280_temperature;BME280_humidity;BME280_pressure;Samples;Min_cycle;Max_cycle;Signal;HPM_P1;HPM_P2
2022/10/08 00:00:58;;;;;;;14.73;12.20;;;14.90;34.60;;;;;;7393737;19;20471;-67
2022/10/08 00:03:30;;;;;;;22.65;12.85;;;14.90;34.30;;;;;;7372300;19;20474;-67
2022/10/08 00:06:02;;;;;;;19.38;12.90;;;14.90;34.20;;;;;;7370579;19;20010;-67
2022/10/08 00:08:36;;;;;;;16.50;11.52;;;14.90;34.10;;;;;;7372047;19;20399;-68
2022/10/08 00:11:08;;;;;;;16.63;12.45;;;14.90;34.00;;;;;;7372044;19;20014;-68
2022/10/08 00:13:42;;;;;;;16.17;11.40;;;14.90;34.00;;;;;;7373009;19;20007;-68
2022/10/08 00:16:14;;;;;;;16.95;12.32;;;14.90;33.70;;;;;;7385027;19;20015;-68
2022/10/08 00:18:45;;;;;;;17.60;12.10;;;14.90;33.90;;;;;;7393879;19;20077;-68
2022/10/08 00:21:18;;;;;;;15.90;11.88;;;14.90;33.80;;;;;;7370680;19;20466;-67
2022/10/08 00:23:51;;;;;;;14.55;11.43;;;14.90;33.70;;;;;;7372257;19;20010;-68
2022/10/08 00:26:24;;;;;;;14.82;10.88;;;15.00;33.70;;;;;;7369940;19;20022;-68
2022/10/08 00:28:56;;;;;;;25.77;12.48;;;15.00;33.70;;;;;;7371829;19;20015;-68
2022/10/08 00:31:27;;;;;;;16.85;12.55;;;15.00;33.40;;;;;;7371386;19;20532;-68
2022/10/08 00:33:59;;;;;;;16.58;10.90;;;15.00;32.90;;;;;;7394800;19;20014;-67
2022/10/08 00:36:31;;;;;;;14.40;11.07;;;14.90;33.70;;;;;;7369006;19;20045;-68
2022/10/08 00:39:05;;;;;;;15.75;11.30;;;14.90;34.50;;;;;;7371761;19;20474;-67
2022/10/08 00:41:38;;;;;;;17.98;11.95;;;14.80;34.40;;;;;;7369520;19;20090;-67
2022/10/08 00:44:37;;;;;;;13.82;11.02;;;14.80;35.00;;;;;;7373670;19;20007;-68
2022/10/08 00:47:15;;;;;;;16.20;12.07;;;14.70;35.60;;;;;;7370248;19;20019;-68
2022/10/08 00:49:45;;;;;;;18.25;11.77;;;14.70;36.00;;;;;;7371339;19;20011;-67
2022/10/08 00:52:15;;;;;;;17.58;11.50;;;14.60;36.80;;;;;;7372475;19;20478;-67
2022/10/08 00:54:48;;;;;;;13.35;10.98;;;14.50;36.80;;;;;;7392478;19;20014;-68
2022/10/08 00:57:19;;;;;;;17.27;11.70;;;14.50;37.60;;;;;;7368128;19;20002;-68
2022/10/08 00:59:49;;;;;;;18.65;12.05;;;14.50;38.30;;;;;;7369838;19;20481;-67
2022/10/08 01:02:19;;;;;;;18.98;12.52;;;14.50;38.80;;;;;;7369616;19;20018;-67
2022/10/08 01:04:49;;;;;;;16.42;11.75;;;14.50;38.90;;;;;;7369745;19;20018;-67
2022/10/08 01:07:25;;;;;;;14.57;11.38;;;14.50;38.00;;;;;;7369317;19;20010;-68
2022/10/08 01:10:06;;;;;;;17.75;11.73;;;14.60;37.60;;;;;;7393703;19;20029;-68
2022/10/08 01:12:49;;;;;;;16.00;11.13;;;14.50;37.50;;;;;;7371036;19;20014;-68
2022/10/08 01:15:26;;;;;;;13.68;11.15;;;14.50;38.20;;;;;;7369104;19;20011;-68
2022/10/08 01:18:05;;;;;;;16.50;11.55;;;14.40;38.10;;;;;;7369077;19;20010;-67
2022/10/08 01:20:52;;;;;;;17.35;11.10;;;14.40;38.30;;;;;;7370224;19;20010;-67
2022/10/08 01:23:42;;;;;;;13.07;10.80;;;14.40;38.80;;;;;;7370486;19;20494;-67
2022/10/08 01:26:45;;;;;;;21.08;10.90;;;14.40;38.50;;;;;;7368285;19;20010;-67
2022/10/08 01:29:22;;;;;;;14.98;11.00;;;14.50;38.30;;;;;;7370526;19;20031;-66
2022/10/08 01:31:56;;;;;;;14.27;11.13;;;14.50;38.10;;;;;;7371026;19;20042;-66
2022/10/08 01:34:31;;;;;;;15.75;10.73;;;14.50;37.90;;;;;;7369006;19;20014;-67
2022/10/08 01:37:02;;;;;;;16.15;11.32;;;14.60;36.90;;;;;;7390523;19;20014;-67
2022/10/08 01:39:35;;;;;;;17.60;11.68;;;14.60;36.90;;;;;;7369592;19;20470;-67
2022/10/08 01:42:09;;;;;;;21.02;11.60;;;14.60;36.90;;;;;;7368089;19;20013;-68
2022/10/08 01:44:45;;;;;;;16.10;10.60;;;14.70;36.00;;;;;;7369392;19;20014;-67
2022/10/08 01:47:19;;;;;;;13.38;10.40;;;14.70;36.00;;;;;;7368371;19;20435;-68
2022/10/08 01:49:51;;;;;;;;;;;14.70;36.10;;;;;;7369868;19;20014;-68
2022/10/08 01:52:25;;;;;;;16.58;10.30;;;14.70;35.80;;;;;;7370249;19;19921;-68
2022/10/08 01:54:57;;;;;;;;;;;14.70;35.30;;;;;;7391976;19;20018;-68
2022/10/08 01:57:29;;;;;;;12.93;9.95;;;14.70;35.40;;;;;;7366176;19;19922;-68
2022/10/08 02:00:05;;;;;;;15.70;10.65;;;14.60;35.80;;;;;;7367573;19;20011;-68
2022/10/08 02:02:35;;;;;;;13.75;10.40;;;14.50;36.70;;;;;;7369263;19;20014;-68
2022/10/08 02:05:06;;;;;;;16.25;10.80;;;14.50;37.10;;;;;;7368010;19;20018;-67
2022/10/08 02:07:40;;;;;;;20.98;10.82;;;14.50;36.80;;;;;;7366459;19;20007;-67
2022/10/08 02:10:13;;;;;;;15.23;11.52;;;14.50;36.80;;;;;;7391535;19;20506;-68
2022/10/08 02:12:43;;;;;;;17.25;11.60;;;14.50;37.20;;;;;;7368947;19;20010;-68
2022/10/08 02:15:21;;;;;;;12.93;10.25;;;14.40;37.50;;;;;;7367732;19;20010;-67
2022/10/08 02:18:00;;;;;;;14.98;10.55;;;14.40;38.00;;;;;;7367075;19;20007;-67
2022/10/08 02:20:36;;;;;;;15.90;11.15;;;14.30;38.30;;;;;;7368785;19;20003;-68
2022/10/08 02:23:24;;;;;;;17.45;11.13;;;14.30;38.90;;;;;;7368430;19;20399;-67
2022/10/08 02:25:58;;;;;;;15.43;10.98;;;14.20;39.30;;;;;;7365996;19;20014;-68
2022/10/08 02:28:33;;;;;;;14.80;10.80;;;14.20;39.50;;;;;;7368061;19;20021;-67
2022/10/08 02:31:09;;;;;;;15.43;11.18;;;14.20;40.10;;;;;;7390681;19;20464;-66
2022/10/08 02:33:45;;;;;;;18.33;11.38;;;14.30;40.80;;;;;;7369466;19;20007;-67
2022/10/08 02:36:18;;;;;;;19.92;11.05;;;14.30;40.60;;;;;;7365777;19;20006;-67
2022/10/08 02:38:53;;;;;;;14.67;10.40;;;14.30;40.00;;;;;;7367256;19;20494;-67
2022/10/08 02:41:30;;;;;;;14.50;10.68;;;14.30;39.80;;;;;;7367911;19;20494;-67
2022/10/08 02:44:05;;;;;;;13.98;10.52;;;14.30;39.70;;;;;;7369521;19;20399;-67
2022/10/08 02:46:41;;;;;;;13.68;11.13;;;14.20;39.50;;;;;;7365015;19;20010;-68
2022/10/08 02:49:17;;;;;;;15.82;11.43;;;14.20;40.10;;;;;;7386925;19;20031;-69
2022/10/08 02:51:49;;;;;;;16.50;11.48;;;14.20;40.60;;;;;;7390643;19;20062;-67
2022/10/08 02:54:22;;;;;;;13.07;10.82;;;14.10;40.70;;;;;;7366516;19;21408;-67
2022/10/08 02:56:56;;;;;;;14.50;10.48;;;14.20;40.80;;;;;;7364979;19;20042;-68
2022/10/08 02:59:27;;;;;;;15.98;10.82;;;14.20;40.80;;;;;;7366443;19;20050;-68
2022/10/08 03:02:01;;;;;;;15.10;10.38;;;14.20;40.80;;;;;;7367705;19;20021;-68
2022/10/08 03:04:35;;;;;;;13.18;10.55;;;14.20;40.30;;;;;;7366307;19;20040;-68
2022/10/08 03:07:06;;;;;;;13.32;9.63;;;14.30;40.40;;;;;;7387747;19;20019;-68
2022/10/08 03:09:39;;;;;;;17.30;9.98;;;14.40;39.80;;;;;;7367156;19;20010;-68
2022/10/08 03:12:09;;;;;;;11.90;9.90;;;14.50;38.40;;;;;;7373471;19;20011;-67
2022/10/08 03:14:42;;;;;;;15.30;10.07;;;14.50;37.20;;;;;;7372425;19;20078;-67
2022/10/08 03:17:18;;;;;;;13.75;9.77;;;14.60;36.80;;;;;;7373219;19;20006;-67
2022/10/08 03:19:48;;;;;;;16.60;9.95;;;14.60;36.80;;;;;;7374382;19;21529;-67
2022/10/08 03:22:19;;;;;;;12.27;9.02;;;14.60;36.40;;;;;;7375411;19;20027;-67
2022/10/08 03:24:49;;;;;;;18.17;9.23;;;14.60;36.50;;;;;;7395841;19;20011;-67
2022/10/08 03:27:24;;;;;;;15.20;10.70;;;14.60;36.50;;;;;;7370543;19;20010;-67
2022/10/08 03:29:56;;;;;;;16.27;11.23;;;14.40;36.60;;;;;;7372671;19;20466;-66
2022/10/08 03:32:29;;;;;;;15.00;11.45;;;14.10;38.20;;;;;;7374116;19;20013;-66
2022/10/08 03:34:59;;;;;;;15.98;12.13;;;13.80;39.80;;;;;;7373241;19;20367;-67
2022/10/08 03:37:28;;;;;;;17.50;13.65;;;13.60;41.50;;;;;;7372282;19;20034;-67
2022/10/08 03:39:58;;;;;;;17.08;13.02;;;13.60;42.50;;;;;;7395768;19;20039;-67
2022/10/08 03:42:28;;;;;;;18.45;13.05;;;13.50;43.50;;;;;;7372814;19;20034;-67
2022/10/08 03:45:00;;;;;;;15.48;13.38;;;13.50;44.30;;;;;;7373384;19;20042;-66
2022/10/08 03:47:32;;;;;;;16.15;12.65;;;13.60;44.40;;;;;;7371391;19;20506;-67
2022/10/08 03:50:02;;;;;;;17.02;13.13;;;13.50;44.30;;;;;;7372076;19;20021;-67
2022/10/08 03:52:32;;;;;;;21.55;13.77;;;13.60;44.60;;;;;;7375046;19;20027;-67
2022/10/08 03:55:02;;;;;;;20.60;13.70;;;13.70;45.00;;;;;;7395053;19;20010;-66
2022/10/08 03:57:31;;;;;;;20.23;13.30;;;13.70;44.60;;;;;;7371023;19;20043;-66
2022/10/08 04:00:01;;;;;;;16.38;12.85;;;13.70;44.50;;;;;;7372860;19;20014;-68
2022/10/08 04:02:33;;;;;;;21.65;13.40;;;13.70;44.30;;;;;;7372911;19;20011;-66
2022/10/08 04:05:03;;;;;;;17.50;13.55;;;13.70;44.40;;;;;;7371987;19;20015;-66
2022/10/08 04:07:33;;;;;;;16.98;12.15;;;13.80;44.50;;;;;;7369710;19;20362;-67
2022/10/08 04:10:03;;;;;;;17.58;12.85;;;13.90;44.00;;;;;;7394599;19;20045;-67
2022/10/08 04:12:32;;;;;;;17.10;12.85;;;13.90;43.50;;;;;;7372949;19;20018;-67
2022/10/08 04:15:02;;;;;;;17.73;12.68;;;13.90;43.30;;;;;;7371585;19;20034;-67
2022/10/08 04:17:34;;;;;;;15.27;12.02;;;13.90;43.80;;;;;;7370445;19;20006;-67
2022/10/08 04:20:04;;;;;;;18.10;12.68;;;14.00;43.70;;;;;;7372961;19;20014;-68
2022/10/08 04:22:34;;;;;;;19.92;13.32;;;14.00;43.70;;;;;;7371372;19;20454;-67
2022/10/08 04:25:04;;;;;;;16.58;12.93;;;14.00;43.70;;;;;;7393679;19;20014;-67
2022/10/08 04:27:34;;;;;;;18.08;14.00;;;13.90;43.30;;;;;;7368812;19;20007;-67
2022/10/08 04:30:03;;;;;;;20.30;13.30;;;13.90;45.50;;;;;;7371442;19;20017;-67
2022/10/08 04:32:36;;;;;;;18.33;14.02;;;13.90;44.70;;;;;;7372433;19;20007;-67
2022/10/08 04:35:06;;;;;;;19.13;13.90;;;13.80;45.10;;;;;;7370878;19;20032;-67
2022/10/08 04:37:36;;;;;;;21.17;14.75;;;13.90;45.80;;;;;;7369342;19;20017;-67
2022/10/08 04:40:07;;;;;;;23.02;13.82;;;13.90;46.10;;;;;;7394432;19;20014;-67
2022/10/08 04:42:36;;;;;;;22.23;14.85;;;13.90;46.10;;;;;;7371824;19;20007;-67
2022/10/08 04:45:07;;;;;;;27.60;15.43;;;13.90;46.20;;;;;;7370134;19;20011;-67
2022/10/08 04:47:39;;;;;;;22.00;14.85;;;14.00;46.20;;;;;;7369471;19;20458;-67
2022/10/08 04:50:10;;;;;;;20.67;15.40;;;14.00;46.20;;;;;;7371481;19;20011;-67
2022/10/08 04:52:40;;;;;;;23.05;15.65;;;14.00;46.20;;;;;;7371654;19;20017;-67
2022/10/08 04:55:11;;;;;;;18.88;15.43;;;14.00;46.10;;;;;;7392796;19;20010;-66
2022/10/08 04:57:41;;;;;;;25.02;14.80;;;14.00;45.70;;;;;;7369154;19;20031;-66
2022/10/08 05:00:12;;;;;;;23.35;15.90;;;13.90;45.60;;;;;;7370345;19;20006;-66
2022/10/08 05:02:49;;;;;;;23.67;15.20;;;14.00;46.30;;;;;;7370504;19;20463;-66
2022/10/08 05:05:20;;;;;;;23.20;15.15;;;14.00;46.10;;;;;;7370141;19;20010;-66
2022/10/08 05:07:50;;;;;;;23.70;15.18;;;14.10;46.30;;;;;;7369382;19;20033;-67
2022/10/08 05:10:19;;;;;;;27.67;15.38;;;14.10;46.30;;;;;;7371145;19;20007;-67
2022/10/08 05:12:49;;;;;;;17.92;14.48;;;14.10;46.20;;;;;;7393098;19;20038;-67
2022/10/08 05:15:19;;;;;;;25.45;15.63;;;14.10;45.90;;;;;;7369252;19;20033;-67
2022/10/08 05:17:51;;;;;;;24.08;15.60;;;14.10;45.60;;;;;;7369338;19;20024;-67
2022/10/08 05:20:21;;;;;;;21.02;15.35;;;14.00;45.40;;;;;;7371272;19;20034;-67
2022/10/08 05:22:51;;;;;;;24.38;14.27;;;14.00;45.40;;;;;;7369727;19;20459;-67
2022/10/08 05:25:21;;;;;;;21.15;14.27;;;14.00;45.80;;;;;;7369661;19;20002;-67
2022/10/08 05:27:51;;;;;;;23.92;13.40;;;13.90;46.00;;;;;;7389626;19;20010;-66
2022/10/08 05:30:21;;;;;;;23.38;14.57;;;13.90;46.20;;;;;;7368081;19;20030;-67
2022/10/08 05:32:53;;;;;;;23.30;15.57;;;13.80;46.60;;;;;;7370126;19;20006;-67
2022/10/08 05:35:23;;;;;;;23.65;14.73;;;13.80;47.50;;;;;;7367885;19;20018;-67
2022/10/08 05:37:52;;;;;;;24.42;16.63;;;13.70;48.30;;;;;;7367891;19;20029;-67
2022/10/08 05:40:23;;;;;;;22.20;15.35;;;13.70;48.70;;;;;;7370106;19;20002;-66
2022/10/08 05:42:53;;;;;;;23.20;15.73;;;13.60;48.60;;;;;;7389893;19;20022;-67
2022/10/08 05:45:23;;;;;;;21.58;15.73;;;13.60;48.80;;;;;;7368273;19;20006;-67
2022/10/08 05:47:56;;;;;;;20.60;15.15;;;13.50;49.40;;;;;;7368172;19;20014;-68
2022/10/08 05:50:25;;;;;;;23.75;16.40;;;13.50;50.10;;;;;;7368876;19;20003;-68
2022/10/08 05:52:55;;;;;;;37.05;17.10;;;13.50;50.30;;;;;;7369764;19;20450;-66
2022/10/08 05:55:26;;;;;;;27.73;17.15;;;13.50;50.50;;;;;;7368225;19;20462;-66
2022/10/08 05:57:56;;;;;;;24.80;15.02;;;13.50;50.60;;;;;;7389331;19;20010;-67
2022/10/08 06:00:25;;;;;;;20.30;15.98;;;13.50;50.80;;;;;;7369158;19;20067;-67
2022/10/08 06:02:58;;;;;;;24.20;15.98;;;13.50;50.70;;;;;;7368891;19;20030;-66
2022/10/08 06:05:27;;;;;;;25.58;16.13;;;13.60;50.70;;;;;;7366038;19;20007;-67
2022/10/08 06:07:58;;;;;;;22.58;16.38;;;13.60;50.60;;;;;;7366589;19;20384;-66
2022/10/08 06:10:30;;;;;;;26.48;16.58;;;13.60;50.40;;;;;;7368032;19;20010;-67
2022/10/08 06:13:00;;;;;;;22.02;15.30;;;13.50;50.00;;;;;;7391286;19;20474;-67
2022/10/08 06:15:30;;;;;;;27.17;15.73;;;13.50;50.20;;;;;;7367205;19;20011;-66
2022/10/08 06:18:02;;;;;;;21.40;15.50;;;13.50;50.20;;;;;;7367270;19;20030;-67
2022/10/08 06:20:32;;;;;;;21.92;14.95;;;13.60;50.60;;;;;;7368104;19;20003;-67
2022/10/08 06:23:02;;;;;;;21.70;15.77;;;13.60;50.00;;;;;;7368537;19;20010;-67
2022/10/08 06:25:32;;;;;;;20.60;14.93;;;13.70;50.00;;;;;;7364678;19;20043;-67
2022/10/08 06:28:01;;;;;;;23.95;16.02;;;13.70;49.50;;;;;;7388488;19;20021;-67
2022/10/08 06:30:31;;;;;;;23.10;15.32;;;13.70;49.30;;;;;;7367746;19;20010;-66
2022/10/08 06:33:04;;;;;;;23.65;17.17;;;13.80;48.80;;;;;;7368752;19;20479;-67
2022/10/08 06:35:33;;;;;;;26.10;17.20;;;13.80;48.80;;;;;;7366846;19;20013;-67
2022/10/08 06:38:03;;;;;;;23.48;15.88;;;13.80;48.80;;;;;;7365235;19;20708;-67
2022/10/08 06:40:37;;;;;;;22.95;15.40;;;13.90;49.10;;;;;;7368131;19;20025;-67
2022/10/08 06:43:09;;;;;;;24.38;16.08;;;14.00;47.40;;;;;;7391136;19;20018;-67
2022/10/08 06:45:40;;;;;;;24.65;15.55;;;14.00;46.90;;;;;;7370095;19;20107;-67
2022/10/08 06:48:14;;;;;;;18.70;13.50;;;14.00;45.90;;;;;;7374189;19;20038;-67
2022/10/08 06:50:44;;;;;;;21.13;13.17;;;14.10;45.30;;;;;;7374413;19;20014;-68
2022/10/08 06:53:13;;;;;;;19.63;13.18;;;14.10;44.10;;;;;;7375876;19;20053;-67
2022/10/08 06:55:43;;;;;;;17.23;12.35;;;14.20;43.40;;;;;;7374589;19;20006;-67
2022/10/08 06:58:13;;;;;;;19.85;12.43;;;14.40;43.00;;;;;;7375854;19;20006;-68
2022/10/08 07:00:43;;;;;;;19.27;12.00;;;14.40;40.50;;;;;;7396272;19;20010;-67
2022/10/08 07:03:15;;;;;;;18.92;11.93;;;14.50;40.00;;;;;;7374725;19;20439;-67
2022/10/08 07:05:45;;;;;;;16.10;12.02;;;14.50;39.50;;;;;;7371138;19;20017;-68
2022/10/08 07:08:15;;;;;;;19.98;11.35;;;14.60;38.10;;;;;;7373975;19;20007;-67
2022/10/08 07:10:45;;;;;;;17.45;11.25;;;14.70;36.90;;;;;;7373739;19;20010;-66
2022/10/08 07:13:15;;;;;;;20.95;11.30;;;14.70;35.60;;;;;;7374778;19;20454;-67
2022/10/08 07:15:45;;;;;;;18.88;11.50;;;14.80;35.40;;;;;;7394317;19;20478;-68
2022/10/08 07:18:17;;;;;;;15.93;10.52;;;15.10;34.80;;;;;;7373105;19;20489;-67
2022/10/08 07:20:57;;;;;;;17.08;9.82;;;15.10;33.20;;;;;;7372746;19;20015;-67
2022/10/08 07:23:27;;;;;;;17.27;10.20;;;14.80;31.60;;;;;;7374547;19;20003;-67
2022/10/08 07:25:58;;;;;;;17.90;8.50;;;14.90;29.70;;;;;;7369467;19;20474;-67
2022/10/08 07:28:30;;;;;;;12.55;7.95;;;15.00;28.40;;;;;;7373687;19;20006;-65
2022/10/08 07:31:04;;;;;;;12.18;8.02;;;15.10;23.70;;;;;;7395972;19;20025;-67
2022/10/08 07:33:39;;;;;;;15.70;7.88;;;15.00;22.40;;;;;;7373116;19;20007;-67
2022/10/08 07:36:10;;;;;;;12.00;6.38;;;15.20;22.10;;;;;;7370683;19;20014;-66
2022/10/08 07:38:41;;;;;;;16.98;6.53;;;15.10;20.10;;;;;;7372146;19;20463;-67
2022/10/08 07:41:13;;;;;;;15.38;6.38;;;15.40;14.00;;;;;;7373243;19;20006;-68
2022/10/08 07:43:42;;;;;;;10.35;5.35;;;15.40;11.40;;;;;;7374540;19;20062;-67
2022/10/08 07:46:13;;;;;;;12.57;5.00;;;15.50;6.40;;;;;;7378864;19;20034;-68
2022/10/08 07:48:45;;;;;;;12.45;4.25;;;15.70;1.00;;;;;;7394629;19;20010;-66
2022/10/08 07:51:18;;;;;;;8.75;3.80;;;15.70;1.00;;;;;;7371437;19;20402;-67
2022/10/08 07:53:48;;;;;;;7.35;3.58;;;16.20;1.00;;;;;;7372839;19;20044;-68
2022/10/08 07:56:20;;;;;;;9.30;3.85;;;16.10;1.00;;;;;;7370277;19;20014;-68
2022/10/08 07:58:51;;;;;;;10.45;3.28;;;15.70;1.00;;;;;;7373048;19;20014;-67
2022/10/08 08:01:27;;;;;;;6.25;3.45;;;15.80;1.00;;;;;;7372883;19;20455;-67
2022/10/08 08:04:01;;;;;;;10.55;3.85;;;15.60;1.00;;;;;;7394144;19;20010;-67
2022/10/08 08:06:32;;;;;;;12.15;3.58;;;15.90;1.00;;;;;;7367971;19;20478;-67
2022/10/08 08:09:03;;;;;;;8.30;3.05;;;16.20;1.00;;;;;;7372697;19;20025;-67
2022/10/08 08:11:33;;;;;;;7.10;2.75;;;15.90;1.00;;;;;;7372262;19;20017;-67
2022/10/08 08:14:03;;;;;;;13.15;2.70;;;15.70;1.00;;;;;;7371478;19;20478;-67
2022/10/08 08:16:32;;;;;;;8.45;2.80;;;15.60;1.00;;;;;;7370983;19;20011;-67
2022/10/08 08:19:06;;;;;;;7.00;2.40;;;15.80;1.00;;;;;;7394531;19;20023;-67
2022/10/08 08:21:37;;;;;;;9.20;2.47;;;16.00;1.00;;;;;;7372586;19;20035;-67
2022/10/08 08:24:09;;;;;;;6.60;2.80;;;15.90;1.00;;;;;;7370090;19;20018;-67
2022/10/08 08:26:41;;;;;;;7.47;2.53;;;15.80;1.00;;;;;;7367448;19;20023;-67
2022/10/08 08:29:13;;;;;;;10.95;3.38;;;15.70;1.00;;;;;;7370681;19;20014;-67
2022/10/08 08:31:44;;;;;;;8.02;2.60;;;16.10;1.00;;;;;;7369629;19;20007;-67
2022/10/08 08:34:19;;;;;;;9.93;2.63;;;16.30;1.00;;;;;;7370926;19;20022;-68
2022/10/08 08:36:52;;;;;;;8.13;2.65;;;16.50;1.00;;;;;;7390503;19;20497;-68
2022/10/08 08:39:24;;;;;;;7.28;2.40;;;15.90;1.00;;;;;;7370439;19;20486;-68
2022/10/08 08:42:25;;;;;;;4.38;1.90;;;16.00;1.00;;;;;;7370335;19;20094;-67
2022/10/08 08:45:00;;;;;;;11.48;2.95;;;16.00;1.00;;;;;;7369747;19;20483;-67
2022/10/08 08:47:35;;;;;;;8.15;2.47;;;15.90;1.00;;;;;;7368535;19;20015;-67
2022/10/08 08:50:20;;;;;;;11.70;2.67;;;15.70;1.00;;;;;;7370238;19;20026;-67
2022/10/08 08:52:50;;;;;;;14.77;4.75;;;15.70;1.00;;;;;;7369995;19;20022;-67
2022/10/08 08:55:27;;;;;;;8.73;2.55;;;16.10;1.00;;;;;;7369838;19;20015;-67
2022/10/08 08:58:01;;;;;;;10.02;2.40;;;16.30;1.00;;;;;;7390991;19;20019;-67
2022/10/08 09:00:40;;;;;;;10.93;2.75;;;16.50;1.00;;;;;;7370527;19;20502;-67
2022/10/08 09:03:21;;;;;;;11.45;2.15;;;16.10;1.00;;;;;;7370338;19;20466;-67
2022/10/08 09:05:56;;;;;;;8.60;2.67;;;16.60;1.00;;;;;;7367717;19;20007;-67
2022/10/08 09:08:31;;;;;;;10.38;2.53;;;16.40;1.00;;;;;;7366637;19;20731;-68
2022/10/08 09:11:03;;;;;;;9.88;2.88;;;16.60;1.00;;;;;;7370051;19;20011;-67
2022/10/08 09:13:38;;;;;;;8.02;2.58;;;17.00;1.00;;;;;;7369598;19;20011;-67
2022/10/08 09:16:08;;;;;;;10.85;3.10;;;16.50;1.00;;;;;;7391178;19;20018;-68
2022/10/08 09:18:39;;;;;;;6.10;2.40;;;16.50;1.00;;;;;;7369117;19;20014;-67
2022/10/08 09:21:11;;;;;;;12.10;3.00;;;16.60;1.00;;;;;;7370244;19;20470;-67
2022/10/08 09:23:41;;;;;;;9.65;2.60;;;16.70;1.00;;;;;;7369033;19;20015;-66
2022/10/08 09:26:16;;;;;;;8.85;2.22;;;17.00;1.00;;;;;;7368138;19;20042;-66
2022/10/08 09:28:48;;;;;;;10.75;2.95;;;16.60;1.00;;;;;;7367802;19;20015;-68
2022/10/08 09:31:28;;;;;;;9.43;2.38;;;16.60;1.00;;;;;;7369184;19;20038;-68
2022/10/08 09:34:06;;;;;;;11.90;3.42;;;16.50;1.00;;;;;;7389586;19;20145;-67
2022/10/08 09:36:43;;;;;;;7.57;2.50;;;16.60;1.00;;;;;;7366565;19;20420;-67
2022/10/08 09:39:19;;;;;;;6.85;2.60;;;16.60;1.00;;;;;;7368347;19;20016;-68
2022/10/08 09:42:11;;;;;;;10.02;2.35;;;16.50;1.00;;;;;;7368887;19;20006;-67
2022/10/08 09:44:42;;;;;;;11.35;2.90;;;16.50;1.00;;;;;;7368536;19;20006;-69
2022/10/08 09:47:13;;;;;;;6.80;2.60;;;16.30;1.00;;;;;;7367818;19;20038;-67
2022/10/08 09:49:48;;;;;;;13.02;3.10;;;16.90;1.00;;;;;;7367991;19;20027;-66
2022/10/08 09:52:25;;;;;;;13.23;3.20;;;16.10;1.00;;;;;;7369826;19;20482;-66
2022/10/08 09:54:59;;;;;;;10.68;3.50;;;16.60;1.00;;;;;;7390147;19;20626;-67
2022/10/08 09:57:30;;;;;;;9.57;3.05;;;16.80;1.00;;;;;;7367000;19;20010;-66
2022/10/08 10:00:01;;;;;;;9.05;2.78;;;16.80;1.00;;;;;;7368118;19;20014;-67
2022/10/08 10:02:34;;;;;;;9.68;3.05;;;16.80;1.00;;;;;;7368726;19;20475;-67
2022/10/08 10:05:06;;;;;;;6.82;2.47;;;16.90;1.00;;;;;;7366787;19;20018;-68
2022/10/08 10:07:44;;;;;;;10.23;2.20;;;16.60;1.00;;;;;;7363671;19;20443;-67
2022/10/08 10:10:19;;;;;;;6.68;1.95;;;16.90;1.00;;;;;;7369036;19;20015;-68
2022/10/08 10:12:52;;;;;;;7.93;2.80;;;17.00;1.00;;;;;;7390096;19;20014;-67
2022/10/08 10:15:26;;;;;;;12.82;2.00;;;16.80;1.00;;;;;;7366057;19;20009;-68
2022/10/08 10:17:58;;;;;;;11.32;2.50;;;17.00;1.00;;;;;;7366505;19;20021;-69
2022/10/08 10:20:32;;;;;;;5.80;1.75;;;17.00;1.00;;;;;;7366722;19;20010;-67
2022/10/08 10:23:07;;;;;;;9.27;2.07;;;17.10;1.00;;;;;;7366604;19;20471;-68
2022/10/08 10:25:41;;;;;;;7.13;2.28;;;17.30;1.00;;;;;;7364889;19;20242;-66
2022/10/08 10:28:18;;;;;;;8.85;2.05;;;17.40;1.00;;;;;;7389203;19;20375;-68
2022/10/08 10:30:55;;;;;;;11.40;2.65;;;17.50;1.00;;;;;;7367750;19;20038;-68
2022/10/08 10:33:29;;;;;;;10.25;2.72;;;17.70;1.00;;;;;;7367561;19;20035;-68
2022/10/08 10:36:03;;;;;;;5.60;2.28;;;18.10;1.00;;;;;;7365276;19;20390;-67
2022/10/08 10:38:39;;;;;;;8.17;2.03;;;17.40;1.00;;;;;;7365862;19;20030;-67
2022/10/08 10:41:18;;;;;;;11.70;2.25;;;17.10;1.00;;;;;;7366139;19;20254;-68
2022/10/08 10:43:52;;;;;;;6.95;2.15;;;17.20;1.00;;;;;;7366219;19;20450;-68
2022/10/08 10:46:33;;;;;;;5.65;2.15;;;17.80;1.00;;;;;;7367045;19;20017;-68
2022/10/08 10:49:03;;;;;;;6.70;2.03;;;18.00;1.00;;;;;;7389769;19;20010;-67
2022/10/08 10:52:05;;;;;;;8.35;2.28;;;17.30;1.00;;;;;;7366963;19;20003;-68
2022/10/08 10:54:56;;;;;;;6.38;1.63;;;17.50;1.00;;;;;;7365388;19;20031;-68
2022/10/08 10:57:40;;;;;;;10.65;2.22;;;17.70;1.00;;;;;;7364368;19;20358;-66
2022/10/08 11:00:15;;;;;;;8.65;2.22;;;17.20;1.00;;;;;;7365946;19;20030;-67
2022/10/08 11:02:53;;;;;;;8.48;2.20;;;17.30;1.00;;;;;;7366423;19;20013;-67
2022/10/08 11:05:25;;;;;;;7.30;2.03;;;17.40;1.00;;;;;;7363568;19;20486;-67
2022/10/08 11:08:19;;;;;;;6.93;1.98;;;17.10;1.00;;;;;;7363663;19;20048;-68
2022/10/08 11:11:01;;;;;;;5.10;1.80;;;17.00;1.00;;;;;;7365535;19;20129;-68
2022/10/08 11:13:45;;;;;;;8.70;2.40;;;17.50;1.00;;;;;;7366386;19;20007;-68
2022/10/08 11:16:27;;;;;;;9.48;2.10;;;17.50;1.00;;;;;;7366565;19;20090;-67
2022/10/08 11:18:59;;;;;;;9.10;2.33;;;17.70;1.00;;;;;;7387859;19;20013;-66
2022/10/08 11:21:45;;;;;;;12.63;2.42;;;18.20;1.00;;;;;;7366258;19;20014;-68
2022/10/08 11:24:31;;;;;;;8.20;2.20;;;17.70;1.00;;;;;;7364751;19;20450;-68
2022/10/08 11:27:10;;;;;;;5.80;1.83;;;17.20;1.00;;;;;;7363453;19;20014;-66
2022/10/08 11:29:45;;;;;;;5.97;1.80;;;17.40;1.00;;;;;;7364647;19;20007;-67
2022/10/08 11:32:18;;;;;;;8.25;1.85;;;17.10;1.00;;;;;;7370218;19;20014;-67
2022/10/08 11:34:53;;;;;;;9.48;2.30;;;17.20;1.00;;;;;;7371659;19;20046;-67
2022/10/08 11:37:29;;;;;;;5.72;1.90;;;16.80;1.00;;;;;;7371905;19;20011;-67
2022/10/08 11:40:08;;;;;;;6.10;1.65;;;16.90;1.00;;;;;;7394472;19;20014;-67
2022/10/08 11:42:48;;;;;;;8.35;1.85;;;17.30;1.00;;;;;;7373106;19;20003;-67
2022/10/08 11:45:33;;;;;;;5.95;1.90;;;17.50;1.00;;;;;;7371421;19;20046;-67
2022/10/08 11:48:33;;;;;;;18.23;2.13;;;17.50;1.00;;;;;;7368751;19;20018;-66
2022/10/08 11:51:32;;;;;;;9.93;2.08;;;17.10;1.00;;;;;;7370584;19;20062;-67
2022/10/08 11:54:14;;;;;;;7.45;2.10;;;17.70;1.00;;;;;;7371057;19;20011;-68
2022/10/08 11:56:46;;;;;;;7.10;2.10;;;17.40;1.00;;;;;;7369967;19;20070;-68
2022/10/08 11:59:33;;;;;;;8.68;1.83;;;17.70;1.00;;;;;;7371925;19;20366;-68
2022/10/08 12:02:05;;;;;;;8.00;2.20;;;17.10;1.00;;;;;;7373133;19;20042;-68
2022/10/08 12:04:37;;;;;;;10.25;2.03;;;17.50;1.00;;;;;;7370382;19;20011;-68
2022/10/08 12:07:19;;;;;;;5.00;1.92;;;16.90;1.00;;;;;;7391914;19;20034;-67
2022/10/08 12:10:18;;;;;;;6.75;1.75;;;17.30;1.00;;;;;;7372666;19;20013;-68
2022/10/08 12:13:05;;;;;;;10.75;2.22;;;17.50;1.00;;;;;;7371910;19;20038;-67
2022/10/08 12:16:03;;;;;;;4.60;1.55;;;17.20;1.00;;;;;;7368414;19;20075;-68
2022/10/08 12:18:44;;;;;;;6.38;1.75;;;17.30;1.00;;;;;;7370445;19;20019;-68
2022/10/08 12:21:37;;;;;;;6.68;2.15;;;17.80;1.00;;;;;;7371140;19;20006;-67
2022/10/08 12:24:40;;;;;;;4.85;1.90;;;17.30;1.00;;;;;;7370242;19;20006;-67
2022/10/08 12:27:36;;;;;;;5.82;2.10;;;17.00;1.00;;;;;;7367543;19;20024;-67
2022/10/08 12:30:09;;;;;;;4.90;1.42;;;17.20;1.00;;;;;;7369749;19;20014;-67
2022/10/08 12:32:58;;;;;;;2.95;1.10;;;17.10;1.00;;;;;;7371379;19;20014;-67
2022/10/08 12:35:31;;;;;;;2.83;1.15;;;17.40;1.00;;;;;;7369814;19;20021;-67
2022/10/08 12:38:25;;;;;;;4.97;1.30;;;17.40;1.00;;;;;;7367564;19;20118;-68
2022/10/08 12:41:06;;;;;;;3.60;1.37;;;17.30;1.00;;;;;;7370043;19;20025;-68
2022/10/08 12:43:44;;;;;;;4.32;1.60;;;17.70;1.00;;;;;;7369438;19;20255;-67
2022/10/08 12:46:24;;;;;;;4.93;1.45;;;17.40;1.00;;;;;;7370795;19;20017;-67
2022/10/08 12:49:01;;;;;;;5.18;1.90;;;17.40;1.00;;;;;;7391544;19;20010;-68
2022/10/08 12:51:42;;;;;;;6.50;1.80;;;17.40;1.00;;;;;;7369483;19;20013;-67
2022/10/08 12:54:20;;;;;;;3.17;1.30;;;17.00;1.00;;;;;;7369507;19;20009;-67
2022/10/08 12:56:51;;;;;;;2.97;1.10;;;16.80;1.00;;;;;;7369059;19;20014;-67
2022/10/08 12:59:22;;;;;;;6.68;1.75;;;17.10;1.00;;;;;;7369612;19;20002;-68
2022/10/08 13:01:53;;;;;;;5.80;1.25;;;17.40;1.00;;;;;;7370365;19;20470;-67
2022/10/08 13:04:28;;;;;;;6.70;1.38;;;17.50;1.00;;;;;;7369198;19;20033;-67
2022/10/08 13:06:58;;;;;;;4.00;1.20;;;17.00;1.00;;;;;;7390192;19;20126;-67
2022/10/08 13:09:30;;;;;;;4.55;1.38;;;17.30;1.00;;;;;;7368972;19;20375;-67
2022/10/08 13:12:02;;;;;;;4.10;1.15;;;17.30;1.00;;;;;;7367880;19;20086;-67
2022/10/08 13:14:34;;;;;;;4.10;1.52;;;17.70;1.00;;;;;;7366945;19;20003;-68